Time;durP1;ratioP1;P1;durP2;ratioP2;P2;SDS_P1;SDS_P2;PMS_P1;PMS_P2;Temp;Humidity;BMP_temperature;BMP_pressure;BME280_temperature;BME280_humidity;BME280_pressure;Samples;Min_cycle;Max_cycle;Signal;HPM_P1;HPM_P2
2021/08/29 00:00:52;;;;;;;5.75;3.20;;;15.10;99.90;;;;;;4918097;29;20035;-73
2021/08/29 00:03:18;;;;;;;9.27;3.30;;;15.10;99.90;;;;;;4918795;29;20032;-73
2021/08/29 00:05:43;;;;;;;6.07;3.95;;;15.10;99.90;;;;;;4917423;29;20020;-72
2021/08/29 00:08:09;;;;;;;8.98;3.65;;;15.10;99.90;;;;;;4917910;29;20025;-73
2021/08/29 00:10:34;;;;;;;8.75;3.30;;;15.10;99.90;;;;;;4933731;29;20485;-73
2021/08/29 00:13:00;;;;;;;8.32;3.53;;;15.10;99.90;;;;;;4918367;29;20465;-77
2021/08/29 00:15:26;;;;;;;6.75;3.28;;;15.20;99.90;;;;;;4918172;29;20453;-75
2021/08/29 00:17:51;;;;;;;5.85;3.25;;;15.10;99.90;;;;;;4917384;29;20024;-73
2021/08/29 00:20:17;;;;;;;6.60;2.97;;;15.20;99.90;;;;;;4917986;29;20036;-73
2021/08/29 00:22:42;;;;;;;5.97;3.35;;;15.20;99.90;;;;;;4932118;29;20028;-72
2021/08/29 00:25:08;;;;;;;6.88;3.55;;;15.20;99.90;;;;;;4918297;29;20024;-73
2021/08/29 00:27:34;;;;;;;7.25;3.10;;;15.20;99.90;;;;;;4917921;29;20074;-73
2021/08/29 00:29:59;;;;;;;4.13;3.22;;;15.20;99.90;;;;;;4918408;29;20028;-73
2021/08/29 00:32:25;;;;;;;5.85;2.97;;;15.20;99.90;;;;;;4933152;29;20032;-73
2021/08/29 00:34:50;;;;;;;4.38;3.05;;;15.20;99.90;;;;;;4916266;29;20028;-73
2021/08/29 00:37:16;;;;;;;7.40;3.10;;;15.20;99.90;;;;;;4917990;29;20044;-72
2021/08/29 00:39:42;;;;;;;7.32;3.10;;;15.20;99.90;;;;;;4933049;29;20099;-73
2021/08/29 00:42:08;;;;;;;4.38;2.72;;;15.30;99.90;;;;;;4932037;29;20492;-72
2021/08/29 00:44:35;;;;;;;7.50;3.17;;;15.30;99.90;;;;;;4917020;29;20028;-70
2021/08/29 00:47:07;;;;;;;8.82;3.58;;;15.30;99.90;;;;;;4917952;29;20031;-72
2021/08/29 00:49:36;;;;;;;;;;;15.30;99.90;;;;;;4916765;29;20155;-72
2021/08/29 00:52:03;;;;;;;5.57;3.45;;;15.30;99.90;;;;;;4916434;29;19913;-72
2021/08/29 00:54:33;;;;;;;8.30;3.75;;;15.30;99.90;;;;;;4932798;29;20079;-73
2021/08/29 00:56:59;;;;;;;5.88;3.20;;;15.30;99.90;;;;;;4931885;29;20107;-72
2021/08/29 00:59:26;;;;;;;8.13;4.25;;;15.30;99.90;;;;;;4918036;29;20048;-72
2021/08/29 01:02:07;;;;;;;5.82;3.35;;;15.40;99.90;;;;;;4932095;29;20499;-74
2021/08/29 01:04:43;;;;;;;6.95;3.33;;;15.40;99.90;;;;;;4931805;29;20036;-72
2021/08/29 01:07:21;;;;;;;6.07;3.53;;;15.40;99.90;;;;;;4916627;29;20122;-72
2021/08/29 01:09:50;;;;;;;7.28;3.25;;;15.40;99.90;;;;;;4916993;29;20028;-72
2021/08/29 01:12:17;;;;;;;5.85;3.40;;;15.40;99.90;;;;;;4917840;29;20032;-72
2021/08/29 01:14:46;;;;;;;7.97;3.38;;;15.40;99.90;;;;;;4917469;29;20024;-72
2021/08/29 01:17:13;;;;;;;7.10;3.65;;;15.40;99.90;;;;;;4916968;29;20031;-72
2021/08/29 01:19:59;;;;;;;5.13;2.92;;;15.50;99.90;;;;;;4917614;29;20020;-72
2021/08/29 01:22:26;;;;;;;10.63;3.72;;;15.40;99.90;;;;;;4917636;29;20028;-71
2021/08/29 01:24:53;;;;;;;9.30;3.65;;;15.40;99.90;;;;;;4915272;29;20036;-73
2021/08/29 01:27:25;;;;;;;8.18;3.40;;;15.50;99.90;;;;;;4917516;29;20051;-71
2021/08/29 01:29:51;;;;;;;7.28;3.30;;;15.50;99.90;;;;;;4917171;29;20036;-71
2021/08/29 01:32:19;;;;;;;6.93;3.83;;;15.40;99.90;;;;;;4916496;29;20024;-71
2021/08/29 01:34:47;;;;;;;8.27;3.50;;;15.50;99.90;;;;;;4917160;29;20024;-71
2021/08/29 01:37:14;;;;;;;9.48;3.58;;;15.50;99.90;;;;;;4917268;29;20035;-72
2021/08/29 01:39:40;;;;;;;8.75;3.53;;;15.50;99.90;;;;;;4916657;29;20401;-72
2021/08/29 01:42:06;;;;;;;9.95;3.70;;;15.50;99.90;;;;;;4916789;29;20056;-71
2021/08/29 01:44:32;;;;;;;7.72;3.72;;;15.50;99.90;;;;;;4917141;29;20032;-71
2021/08/29 01:46:58;;;;;;;8.38;3.67;;;15.50;99.90;;;;;;4916309;29;20448;-72
2021/08/29 01:49:25;;;;;;;9.10;3.22;;;15.50;99.90;;;;;;4915877;29;20027;-71
2021/08/29 01:51:51;;;;;;;8.40;3.95;;;15.50;99.90;;;;;;4914800;29;20020;-71
2021/08/29 01:54:17;;;;;;;8.27;3.95;;;15.50;99.90;;;;;;4916993;29;20060;-71
2021/08/29 01:57:04;;;;;;;8.07;3.85;;;15.60;99.90;;;;;;4916879;29;20099;-72
2021/08/29 01:59:30;;;;;;;9.27;3.55;;;15.60;99.90;;;;;;4930827;29;20362;-73
2021/08/29 02:01:56;;;;;;;8.35;4.18;;;15.60;99.90;;;;;;4916473;29;20107;-72
2021/08/29 02:04:24;;;;;;;9.63;4.22;;;15.60;99.90;;;;;;4915760;29;20030;-72
2021/08/29 02:07:15;;;;;;;7.32;4.00;;;15.60;99.90;;;;;;4914880;29;20039;-72
2021/08/29 02:09:45;;;;;;;9.90;4.18;;;15.60;99.90;;;;;;4916481;29;20086;-72
2021/08/29 02:12:11;;;;;;;8.38;4.18;;;15.60;99.90;;;;;;4916590;29;20028;-73
2021/08/29 02:14:46;;;;;;;6.57;3.60;;;15.60;99.90;;;;;;4930809;29;20039;-73
2021/08/29 02:17:12;;;;;;;6.32;3.75;;;15.60;99.90;;;;;;4915386;29;20409;-73
2021/08/29 02:19:38;;;;;;;7.47;4.00;;;15.60;99.90;;;;;;4915494;29;20028;-72
2021/08/29 02:22:05;;;;;;;7.40;4.07;;;15.60;99.90;;;;;;4915552;29;20039;-72
2021/08/29 02:24:31;;;;;;;8.05;4.20;;;15.60;99.90;;;;;;4916623;29;20028;-73
2021/08/29 02:26:58;;;;;;;7.13;3.75;;;15.50;99.90;;;;;;4915911;29;20099;-72
2021/08/29 02:29:25;;;;;;;12.20;4.72;;;15.50;99.90;;;;;;4931338;29;20076;-72
2021/08/29 02:31:51;;;;;;;6.28;3.90;;;15.50;99.90;;;;;;4915081;29;20495;-72
2021/08/29 02:34:18;;;;;;;8.65;4.20;;;15.50;99.90;;;;;;4914536;29;20436;-72
2021/08/29 02:36:45;;;;;;;4.95;3.75;;;15.50;99.90;;;;;;4914976;29;20035;-72
2021/08/29 02:39:13;;;;;;;12.38;4.78;;;15.50;99.90;;;;;;4916392;29;20487;-74
2021/08/29 02:41:40;;;;;;;9.02;4.10;;;15.60;99.90;;;;;;4915684;29;20052;-72
2021/08/29 02:44:06;;;;;;;10.68;4.80;;;15.60;99.90;;;;;;4914597;29;20025;-73
2021/08/29 02:46:32;;;;;;;8.13;4.32;;;15.60;99.90;;;;;;4915263;29;20035;-72
2021/08/29 02:48:58;;;;;;;11.10;5.43;;;15.60;99.90;;;;;;4915348;29;20029;-72
2021/08/29 02:51:24;;;;;;;7.90;4.80;;;15.60;99.90;;;;;;4916479;29;20024;-72
2021/08/29 02:53:50;;;;;;;8.52;5.07;;;15.60;99.90;;;;;;4915894;29;20020;-73
2021/08/29 02:56:18;;;;;;;12.45;6.72;;;15.60;99.90;;;;;;4915586;29;20071;-72
2021/08/29 02:58:45;;;;;;;11.80;6.68;;;15.70;99.90;;;;;;4916037;29;20020;-71
2021/08/29 03:01:11;;;;;;;11.02;7.20;;;15.70;99.90;;;;;;4914929;29;20087;-73
2021/08/29 03:03:37;;;;;;;16.95;9.13;;;15.70;99.90;;;;;;4915519;29;20035;-72
2021/08/29 03:06:03;;;;;;;13.48;8.77;;;15.70;99.90;;;;;;4915981;29;20028;-72
2021/08/29 03:08:28;;;;;;;17.65;11.20;;;15.70;99.90;;;;;;4916161;29;20042;-72
2021/08/29 03:10:54;;;;;;;20.35;11.55;;;15.70;99.90;;;;;;4914909;29;20037;-71
2021/08/29 03:13:20;;;;;;;20.17;12.98;;;15.70;99.90;;;;;;4914815;29;20029;-72
2021/08/29 03:15:46;;;;;;;15.25;11.57;;;15.70;99.90;;;;;;4915988;29;20396;-71
2021/08/29 03:18:12;;;;;;;22.00;13.15;;;15.70;99.90;;;;;;4914162;29;20118;-72
2021/08/29 03:20:38;;;;;;;19.67;13.70;;;15.80;99.90;;;;;;4916119;29;20484;-72
2021/08/29 03:23:03;;;;;;;21.27;13.73;;;15.70;99.90;;;;;;4914450;29;20076;-72
2021/08/29 03:25:29;;;;;;;22.27;14.35;;;15.80;99.90;;;;;;4915411;29;20036;-72
2021/08/29 03:27:55;;;;;;;22.98;15.30;;;15.80;99.90;;;;;;4915389;29;20028;-72
2021/08/29 03:30:21;;;;;;;24.48;14.90;;;15.80;99.90;;;;;;4914223;29;20024;-72
2021/08/29 03:32:47;;;;;;;20.70;15.13;;;15.70;99.90;;;;;;4915514;29;20025;-71
2021/08/29 03:35:13;;;;;;;23.40;15.13;;;15.70;99.90;;;;;;4914646;29;20024;-72
2021/08/29 03:37:41;;;;;;;26.75;15.55;;;15.70;99.90;;;;;;4914165;29;20468;-71
2021/08/29 03:40:07;;;;;;;17.48;12.77;;;15.70;99.90;;;;;;4914373;29;20056;-72
2021/08/29 03:42:34;;;;;;;20.98;14.07;;;15.70;99.90;;;;;;4915647;29;20479;-72
2021/08/29 03:45:01;;;;;;;15.30;11.65;;;15.60;99.90;;;;;;4914889;29;20020;-72
2021/08/29 03:47:27;;;;;;;19.45;12.07;;;15.60;99.90;;;;;;4914677;29;20477;-71
2021/08/29 03:49:53;;;;;;;17.35;11.32;;;15.60;99.90;;;;;;4915556;29;20024;-71
2021/08/29 03:52:19;;;;;;;14.27;10.95;;;15.50;99.90;;;;;;4915134;29;20389;-72
2021/08/29 03:54:46;;;;;;;15.30;9.95;;;15.50;99.90;;;;;;4915451;29;20037;-72
2021/08/29 03:57:12;;;;;;;15.88;10.13;;;15.50;99.90;;;;;;4932912;29;20409;-72
2021/08/29 03:59:38;;;;;;;12.50;7.57;;;15.50;99.90;;;;;;4918457;29;20088;-73
2021/08/29 04:02:05;;;;;;;12.98;8.32;;;15.50;99.90;;;;;;4918527;29;20044;-72
2021/08/29 04:04:32;;;;;;;11.40;7.47;;;15.50;99.90;;;;;;4917882;29;20181;-72
2021/08/29 04:07:04;;;;;;;12.20;6.50;;;15.50;99.90;;;;;;4918033;29;20036;-73
2021/08/29 04:09:32;;;;;;;12.27;5.80;;;15.50;99.90;;;;;;4918860;29;20024;-72
2021/08/29 04:11:59;;;;;;;11.90;5.75;;;15.50;99.90;;;;;;4933297;29;20036;-73
2021/08/29 04:14:25;;;;;;;8.10;5.25;;;15.50;99.90;;;;;;4918258;29;20048;-72
2021/08/29 04:16:54;;;;;;;9.25;5.40;;;15.40;99.90;;;;;;4918841;29;20372;-73
2021/08/29 04:19:21;;;;;;;9.05;5.05;;;15.40;99.90;;;;;;4933316;29;20083;-72
2021/08/29 04:21:47;;;;;;;6.85;4.57;;;15.40;99.90;;;;;;4916627;29;20083;-73
2021/08/29 04:24:12;;;;;;;6.82;4.13;;;15.50;99.90;;;;;;4933152;29;20064;-72
2021/08/29 04:26:38;;;;;;;7.50;3.95;;;15.40;99.90;;;;;;4918011;29;20042;-72
2021/08/29 04:29:04;;;;;;;8.48;3.88;;;15.40;99.90;;;;;;4918258;29;20051;-72
2021/08/29 04:31:32;;;;;;;6.72;4.13;;;15.40;99.90;;;;;;4917354;29;20020;-72
2021/08/29 04:34:06;;;;;;;12.10;4.68;;;15.40;99.90;;;;;;4917497;29;20037;-73
2021/08/29 04:36:33;;;;;;;7.15;3.65;;;15.40;99.90;;;;;;4918581;29;20032;-72
2021/08/29 04:39:00;;;;;;;6.97;3.78;;;15.40;99.90;;;;;;4916701;29;20492;-72
2021/08/29 04:41:25;;;;;;;6.80;3.70;;;15.40;99.90;;;;;;4916319;29;20143;-73
2021/08/29 04:43:51;;;;;;;9.32;3.95;;;15.40;99.90;;;;;;4916830;29;20111;-71
2021/08/29 04:46:16;;;;;;;8.18;4.28;;;15.50;99.90;;;;;;4916969;29;20111;-72
2021/08/29 04:48:42;;;;;;;12.63;4.57;;;15.50;99.90;;;;;;4916184;29;20028;-72
2021/08/29 04:51:08;;;;;;;7.90;3.50;;;15.50;99.90;;;;;;4918103;29;20080;-73
2021/08/29 04:53:34;;;;;;;6.25;3.42;;;15.50;99.90;;;;;;4918625;29;20020;-72
2021/08/29 04:55:59;;;;;;;9.07;4.10;;;15.50;99.90;;;;;;4917166;29;20436;-72
2021/08/29 04:58:25;;;;;;;7.28;3.42;;;15.60;99.90;;;;;;4918269;29;20116;-72
2021/08/29 05:00:51;;;;;;;8.20;3.28;;;15.50;99.90;;;;;;4917741;29;20035;-73
2021/08/29 05:03:16;;;;;;;5.55;3.10;;;15.60;99.90;;;;;;4916144;29;20048;-72
2021/08/29 05:05:42;;;;;;;9.10;4.00;;;15.60;99.90;;;;;;4917716;29;20028;-72
2021/08/29 05:08:08;;;;;;;7.63;3.22;;;15.70;99.90;;;;;;4917247;29;20028;-72
2021/08/29 05:10:33;;;;;;;7.70;3.78;;;15.70;99.90;;;;;;4917145;29;20028;-72
2021/08/29 05:12:59;;;;;;;8.27;3.90;;;15.70;99.90;;;;;;4916268;29;20021;-72
2021/08/29 05:15:24;;;;;;;8.85;3.67;;;15.70;99.90;;;;;;4917577;29;20159;-73
2021/08/29 05:17:50;;;;;;;6.82;3.60;;;15.70;99.90;;;;;;4916817;29;20024;-73
2021/08/29 05:20:16;;;;;;;7.70;4.25;;;15.70;99.90;;;;;;4917648;29;20033;-72
2021/08/29 05:22:41;;;;;;;11.18;4.28;;;15.80;99.90;;;;;;4916048;29;20032;-72
2021/08/29 05:25:07;;;;;;;9.65;4.00;;;15.80;99.90;;;;;;4916777;29;20028;-72
2021/08/29 05:27:33;;;;;;;12.18;4.07;;;15.90;99.90;;;;;;4917586;29;20042;-71
2021/08/29 05:29:58;;;;;;;8.98;3.72;;;15.90;99.90;;;;;;4916478;29;20465;-71
2021/08/29 05:32:24;;;;;;;9.82;4.30;;;15.90;99.90;;;;;;4917398;29;20557;-71
2021/08/29 05:34:49;;;;;;;7.75;3.20;;;15.90;99.90;;;;;;4931879;29;20032;-72
2021/08/29 05:37:15;;;;;;;12.18;4.18;;;16.00;99.90;;;;;;4916756;29;20024;-71
2021/08/29 05:39:41;;;;;;;13.07;3.92;;;16.00;99.90;;;;;;4931530;29;20026;-71
2021/08/29 05:42:06;;;;;;;11.98;3.97;;;16.10;99.90;;;;;;4915711;29;20059;-71
2021/08/29 05:44:32;;;;;;;13.60;4.22;;;16.10;99.90;;;;;;4916530;29;20025;-72
2021/08/29 05:46:58;;;;;;;10.23;3.47;;;16.10;99.90;;;;;;4915572;29;20032;-71
2021/08/29 05:49:23;;;;;;;12.40;4.25;;;16.10;99.90;;;;;;4916032;29;20385;-71
2021/08/29 05:51:49;;;;;;;7.75;3.78;;;16.20;99.90;;;;;;4916248;29;20147;-72
2021/08/29 05:54:14;;;;;;;12.73;3.88;;;16.20;99.90;;;;;;4931656;29;20022;-72
2021/08/29 05:56:40;;;;;;;8.77;3.70;;;16.20;99.90;;;;;;4906604;29;20066;-72
2021/08/29 05:59:06;;;;;;;15.77;4.30;;;16.30;99.90;;;;;;4916507;29;20020;-72
2021/08/29 06:01:31;;;;;;;9.50;3.65;;;16.20;99.90;;;;;;4909268;29;20039;-72
2021/08/29 06:03:57;;;;;;;11.18;4.13;;;16.30;99.90;;;;;;4915757;29;20419;-71
2021/08/29 06:06:23;;;;;;;7.05;3.65;;;16.30;99.90;;;;;;4918601;29;20039;-72
2021/08/29 06:08:48;;;;;;;7.30;3.92;;;16.30;99.90;;;;;;4918053;29;20024;-72
2021/08/29 06:11:14;;;;;;;9.52;4.15;;;16.30;99.90;;;;;;4923752;29;20024;-72
2021/08/29 06:13:39;;;;;;;9.63;3.63;;;16.30;99.90;;;;;;4929014;29;20024;-73
2021/08/29 06:16:05;;;;;;;8.10;4.15;;;16.40;99.90;;;;;;4919982;29;20035;-72
2021/08/29 06:18:31;;;;;;;11.48;3.67;;;16.40;99.90;;;;;;4918442;29;20024;-72
2021/08/29 06:20:56;;;;;;;8.90;3.60;;;16.40;99.90;;;;;;4914227;29;20556;-73
2021/08/29 06:23:22;;;;;;;7.78;3.90;;;16.40;99.90;;;;;;4923372;29;20535;-73
2021/08/29 06:25:48;;;;;;;10.68;3.78;;;16.50;99.90;;;;;;4930696;29;20039;-73
2021/08/29 06:28:13;;;;;;;10.20;3.55;;;16.60;99.90;;;;;;4907375;29;20434;-73
2021/08/29 06:30:39;;;;;;;7.30;3.13;;;16.60;99.90;;;;;;4933610;29;20041;-73
2021/08/29 06:33:04;;;;;;;11.15;3.70;;;16.60;99.90;;;;;;4930543;29;20032;-73
2021/08/29 06:35:30;;;;;;;6.35;3.33;;;16.70;99.90;;;;;;4924985;29;20094;-72
2021/08/29 06:37:55;;;;;;;9.63;3.88;;;16.70;99.90;;;;;;4920486;29;20028;-72
2021/08/29 06:40:21;;;;;;;7.82;3.55;;;16.70;99.90;;;;;;4914385;29;20032;-73
2021/08/29 06:42:46;;;;;;;7.78;3.35;;;16.80;99.90;;;;;;4920060;29;20080;-73
2021/08/29 06:45:12;;;;;;;20.15;5.53;;;16.80;99.90;;;;;;4918582;29;20498;-72
2021/08/29 06:47:38;;;;;;;15.70;4.20;;;16.80;99.90;;;;;;4912754;29;20063;-72
2021/08/29 06:50:04;;;;;;;8.40;3.45;;;16.80;99.90;;;;;;4929924;29;20488;-72
2021/08/29 06:52:31;;;;;;;8.52;4.05;;;16.90;99.90;;;;;;4916484;29;20380;-73
2021/08/29 06:54:56;;;;;;;7.40;3.05;;;17.00;99.90;;;;;;4914075;29;20027;-73
2021/08/29 06:57:25;;;;;;;12.63;3.35;;;17.00;99.90;;;;;;4915015;29;20032;-73
2021/08/29 06:59:52;;;;;;;9.50;3.60;;;17.10;99.90;;;;;;4903685;29;20028;-73
2021/08/29 07:02:18;;;;;;;8.10;3.70;;;17.20;99.90;;;;;;4927994;29;20129;-72
2021/08/29 07:04:44;;;;;;;6.30;3.10;;;17.20;99.90;;;;;;4923738;29;20032;-74
2021/08/29 07:07:09;;;;;;;7.65;3.03;;;17.30;99.90;;;;;;4918995;29;20103;-75
2021/08/29 07:09:38;;;;;;;7.78;3.88;;;17.30;99.90;;;;;;4916203;29;20020;-73
2021/08/29 07:12:05;;;;;;;7.70;3.30;;;17.30;99.90;;;;;;4914543;29;20025;-72
2021/08/29 07:14:30;;;;;;;6.90;2.72;;;17.30;99.90;;;;;;4898571;29;20450;-74
2021/08/29 07:16:56;;;;;;;13.00;3.65;;;17.30;99.90;;;;;;4896245;29;20025;-73
2021/08/29 07:19:21;;;;;;;8.65;3.00;;;17.30;99.90;;;;;;4897276;29;20426;-73
2021/08/29 07:21:47;;;;;;;8.80;3.35;;;17.30;99.90;;;;;;4916178;29;20523;-72
2021/08/29 07:24:13;;;;;;;8.48;3.38;;;17.30;99.90;;;;;;4922307;29;20201;-73
2021/08/29 07:26:38;;;;;;;7.55;3.30;;;17.40;99.90;;;;;;4915919;29;20028;-73
2021/08/29 07:29:04;;;;;;;6.13;2.70;;;17.30;99.90;;;;;;4914138;29;20025;-74
2021/08/29 07:31:29;;;;;;;13.25;3.85;;;17.20;99.90;;;;;;4928738;29;20507;-73
2021/08/29 07:33:55;;;;;;;9.65;3.92;;;17.20;99.90;;;;;;4920585;29;20075;-74
2021/08/29 07:36:21;;;;;;;9.60;3.20;;;17.20;99.90;;;;;;4938761;29;20027;-73
2021/08/29 07:38:46;;;;;;;9.95;3.60;;;17.30;99.90;;;;;;4919045;29;20052;-73
2021/08/29 07:41:12;;;;;;;10.93;3.78;;;17.30;99.90;;;;;;4919140;29;20410;-73
2021/08/29 07:43:38;;;;;;;9.88;4.10;;;17.40;99.90;;;;;;4918581;29;20469;-70
2021/08/29 07:46:04;;;;;;;10.77;3.83;;;17.30;99.90;;;;;;4928562;29;20035;-73
2021/08/29 07:48:30;;;;;;;10.25;3.63;;;17.40;99.90;;;;;;4938518;29;20024;-71
2021/08/29 07:50:56;;;;;;;8.93;3.88;;;17.40;99.90;;;;;;4922919;29;20038;-73
2021/08/29 07:53:21;;;;;;;10.13;3.25;;;17.40;99.90;;;;;;4919198;29;20026;-70
2021/08/29 07:55:47;;;;;;;9.70;3.55;;;17.40;99.90;;;;;;4918935;29;20032;-73
2021/08/29 07:58:12;;;;;;;10.48;3.95;;;17.40;99.90;;;;;;4918693;29;20099;-72
2021/08/29 08:00:38;;;;;;;6.80;3.05;;;17.30;99.90;;;;;;4918728;29;20072;-73
2021/08/29 08:03:04;;;;;;;6.75;3.20;;;17.20;99.90;;;;;;4918193;29;20029;-73
2021/08/29 08:05:29;;;;;;;9.43;2.80;;;17.20;99.90;;;;;;4930694;29;20115;-73
2021/08/29 08:07:55;;;;;;;9.38;3.22;;;17.00;99.90;;;;;;4936295;29;20353;-73
2021/08/29 08:10:23;;;;;;;8.23;3.95;;;16.90;99.90;;;;;;4919004;29;20552;-73
2021/08/29 08:12:49;;;;;;;10.23;3.00;;;16.90;99.90;;;;;;4918032;29;20032;-73
2021/08/29 08:15:15;;;;;;;10.27;3.00;;;16.90;99.90;;;;;;4917584;29;20032;-73
2021/08/29 08:17:41;;;;;;;9.55;3.45;;;16.90;99.90;;;;;;4917135;29;20032;-73
2021/08/29 08:20:08;;;;;;;11.55;3.83;;;16.90;99.90;;;;;;4932634;29;20031;-72
2021/08/29 08:22:34;;;;;;;11.00;3.95;;;17.00;99.90;;;;;;4918729;29;20028;-72
2021/08/29 08:24:59;;;;;;;8.75;3.22;;;17.00;99.90;;;;;;4918571;29;20108;-72
2021/08/29 08:27:25;;;;;;;11.18;3.92;;;17.00;99.90;;;;;;4917741;29;20039;-72
2021/08/29 08:29:51;;;;;;;7.25;2.90;;;17.00;99.90;;;;;;4916821;29;20024;-71
2021/08/29 08:32:16;;;;;;;9.10;3.67;;;17.00;99.90;;;;;;4918366;29;20106;-70
2021/08/29 08:34:42;;;;;;;4.75;2.42;;;17.00;99.90;;;;;;4915944;29;20020;-71
2021/08/29 08:37:08;;;;;;;8.43;3.45;;;16.90;99.90;;;;;;4915649;29;20366;-71
2021/08/29 08:39:33;;;;;;;10.63;3.40;;;16.90;99.90;;;;;;4916532;29;20032;-71
2021/08/29 08:41:59;;;;;;;5.85;3.15;;;16.80;99.90;;;;;;4914444;29;20040;-71
2021/08/29 08:44:25;;;;;;;5.35;2.67;;;16.80;99.90;;;;;;4916211;29;20030;-72
2021/08/29 08:46:55;;;;;;;8.13;3.92;;;16.90;99.90;;;;;;4916365;29;20038;-71
2021/08/29 08:49:22;;;;;;;6.40;3.08;;;17.10;99.90;;;;;;4916520;29;20056;-72
2021/08/29 08:51:51;;;;;;;8.75;3.15;;;17.20;99.90;;;;;;4917623;29;20032;-71
2021/08/29 08:54:17;;;;;;;10.80;4.35;;;17.20;99.90;;;;;;4915798;29;20107;-70
2021/08/29 08:56:43;;;;;;;7.93;3.15;;;17.20;99.90;;;;;;4917112;29;20032;-71
2021/08/29 08:59:09;;;;;;;4.25;3.00;;;17.20;99.90;;;;;;4917068;29;20025;-71
2021/08/29 09:01:35;;;;;;;5.95;2.85;;;17.20;99.90;;;;;;4916777;29;20044;-72
2021/08/29 09:04:01;;;;;;;9.73;3.28;;;17.20;99.90;;;;;;4917233;29;20024;-72
2021/08/29 09:06:27;;;;;;;6.47;3.70;;;17.20;99.90;;;;;;4916323;29;20122;-71
2021/08/29 09:08:53;;;;;;;7.85;3.03;;;17.20;99.90;;;;;;4916042;29;20020;-72
2021/08/29 09:11:18;;;;;;;5.63;3.03;;;17.20;99.90;;;;;;4915943;29;20120;-72
2021/08/29 09:13:47;;;;;;;8.13;3.30;;;17.10;99.90;;;;;;4915728;29;20064;-73
2021/08/29 09:16:22;;;;;;;6.38;3.20;;;17.10;99.90;;;;;;4917055;29;20437;-71
2021/08/29 09:18:53;;;;;;;7.78;2.92;;;17.10;99.90;;;;;;4915760;29;20107;-73
2021/08/29 09:21:29;;;;;;;11.18;3.65;;;17.20;99.90;;;;;;4906599;29;20063;-70
2021/08/29 09:23:57;;;;;;;9.10;3.35;;;17.20;99.90;;;;;;4915302;29;20464;-74
2021/08/29 09:26:25;;;;;;;7.95;3.38;;;17.20;99.90;;;;;;4917539;29;20048;-71
2021/08/29 09:28:55;;;;;;;8.05;3.22;;;17.30;99.90;;;;;;4916816;29;20079;-70
2021/08/29 09:31:21;;;;;;;9.65;2.92;;;17.30;99.90;;;;;;4900375;29;20377;-71
2021/08/29 09:34:00;;;;;;;6.97;3.30;;;17.30;99.90;;;;;;4916626;29;20039;-71
2021/08/29 09:36:29;;;;;;;7.20;3.20;;;17.10;99.90;;;;;;4915318;29;20477;-71
2021/08/29 09:39:21;;;;;;;9.07;3.70;;;17.00;99.90;;;;;;4915519;29;20036;-71
2021/08/29 09:41:47;;;;;;;9.65;3.83;;;16.80;99.90;;;;;;4905438;29;20509;-70
2021/08/29 09:44:21;;;;;;;9.77;3.13;;;16.80;99.90;;;;;;4918029;29;20024;-71
2021/08/29 09:47:01;;;;;;;9.95;3.13;;;16.80;99.90;;;;;;4919493;29;20039;-72
2021/08/29 09:49:35;;;;;;;6.22;2.72;;;16.80;99.90;;;;;;4918189;29;20127;-72
2021/08/29 09:52:03;;;;;;;7.70;3.10;;;16.90;99.90;;;;;;4916527;29;20071;-71
2021/08/29 09:54:33;;;;;;;6.60;2.85;;;17.00;99.90;;;;;;4909831;29;20035;-71
2021/08/29 09:57:01;;;;;;;7.00;3.15;;;17.10;99.90;;;;;;4915879;29;20032;-72
2021/08/29 09:59:45;;;;;;;8.02;3.08;;;17.10;99.90;;;;;;4926096;29;20034;-72
2021/08/29 10:02:12;;;;;;;6.47;2.72;;;17.10;99.90;;;;;;4916614;29;20138;-70
2021/08/29 10:04:39;;;;;;;4.45;2.53;;;17.10;99.90;;;;;;4914770;29;20028;-72
2021/08/29 10:07:13;;;;;;;5.32;2.90;;;16.90;99.90;;;;;;4930946;29;20024;-69
2021/08/29 10:09:40;;;;;;;5.65;2.63;;;16.90;99.90;;;;;;4916470;29;20040;-71
2021/08/29 10:12:07;;;;;;;7.18;2.80;;;16.80;99.90;;;;;;4912114;29;20038;-72
2021/08/29 10:14:35;;;;;;;6.50;2.50;;;16.70;99.90;;;;;;4927416;29;20020;-71
2021/08/29 10:17:01;;;;;;;4.78;2.30;;;16.70;99.90;;;;;;4915265;29;20032;-72
2021/08/29 10:19:28;;;;;;;4.75;2.25;;;16.70;99.90;;;;;;4917093;29;20102;-72
2021/08/29 10:21:54;;;;;;;4.05;2.17;;;16.60;99.90;;;;;;4916023;29;20123;-73
2021/08/29 10:24:22;;;;;;;4.97;2.25;;;16.70;99.90;;;;;;4915090;29;20070;-71
2021/08/29 10:26:52;;;;;;;5.63;2.80;;;16.80;99.90;;;;;;4915774;29;20028;-73
2021/08/29 10:29:30;;;;;;;6.10;2.40;;;16.90;99.90;;;;;;4915073;29;20476;-73
2021/08/29 10:32:34;;;;;;;6.93;2.47;;;16.90;99.90;;;;;;4914164;29;20034;-72
2021/08/29 10:35:07;;;;;;;5.45;2.28;;;17.00;99.90;;;;;;4916080;29;20047;-73
2021/08/29 10:37:53;;;;;;;5.55;2.63;;;17.10;99.90;;;;;;4915435;29;20582;-72
2021/08/29 10:40:19;;;;;;;6.25;2.30;;;17.10;99.90;;;;;;4914551;29;20047;-72
2021/08/29 10:42:45;;;;;;;4.78;2.00;;;17.00;99.90;;;;;;4911602;29;20056;-72
2021/08/29 10:45:12;;;;;;;5.28;2.05;;;17.00;99.90;;;;;;4915458;29;20103;-72
2021/08/29 10:47:39;;;;;;;3.08;1.70;;;16.90;99.90;;;;;;4911831;29;20041;-74
2021/08/29 10:50:07;;;;;;;5.35;2.30;;;17.00;99.90;;;;;;4902271;29;20029;-73
2021/08/29 10:52:35;;;;;;;6.18;2.92;;;17.10;99.90;;;;;;4908409;29;20024;-73
2021/08/29 10:55:07;;;;;;;3.45;1.77;;;17.10;99.90;;;;;;4918459;29;20073;-73
2021/08/29 10:57:37;;;;;;;5.80;2.08;;;17.20;99.90;;;;;;4910186;29;20028;-72
2021/08/29 11:00:03;;;;;;;4.55;3.13;;;17.20;99.90;;;;;;4932925;29;20027;-72
2021/08/29 11:02:36;;;;;;;3.38;2.35;;;17.20;99.90;;;;;;4916071;29;20099;-73
2021/08/29 11:05:02;;;;;;;5.55;3.10;;;17.20;99.90;;;;;;4917130;29;20096;-72
2021/08/29 11:07:39;;;;;;;2.38;1.80;;;17.30;99.90;;;;;;4918484;29;20639;-72
2021/08/29 11:10:07;;;;;;;4.95;2.17;;;17.30;99.90;;;;;;4919250;29;20036;-74
2021/08/29 11:12:33;;;;;;;2.83;1.70;;;17.40;99.90;;;;;;4916582;29;20107;-73
2021/08/29 11:15:01;;;;;;;5.75;1.83;;;17.40;99.90;;;;;;4909051;29;20111;-72
2021/08/29 11:17:29;;;;;;;5.22;2.08;;;17.50;99.90;;;;;;4918740;29;20024;-74
2021/08/29 11:20:16;;;;;;;2.78;1.30;;;17.50;99.90;;;;;;4917103;29;20032;-72
2021/08/29 11:22:45;;;;;;;2.25;1.52;;;17.50;99.90;;;;;;4916703;29;20519;-77
2021/08/29 11:25:11;;;;;;;2.08;1.45;;;17.50;99.90;;;;;;4916879;29;20092;-77
2021/08/29 11:27:44;;;;;;;2.15;1.48;;;17.40;99.90;;;;;;4916718;29;20032;-78
2021/08/29 11:30:15;;;;;;;2.47;1.35;;;17.30;99.90;;;;;;4917671;29;20016;-77
2021/08/29 11:32:46;;;;;;;1.52;1.40;;;17.30;99.90;;;;;;4917134;29;20029;-75
2021/08/29 11:35:16;;;;;;;1.43;1.13;;;17.20;99.90;;;;;;4918627;29;20508;-77
2021/08/29 11:38:02;;;;;;;1.20;1.10;;;17.20;99.90;;;;;;4918694;29;20333;-75
2021/08/29 11:40:52;;;;;;;2.15;1.83;;;17.30;99.90;;;;;;4918282;29;20036;-76
2021/08/29 11:43:26;;;;;;;1.25;1.10;;;17.40;99.90;;;;;;4917756;29;20122;-76
2021/08/29 11:46:01;;;;;;;2.85;1.73;;;17.50;99.90;;;;;;4917787;29;20028;-76
2021/08/29 11:48:30;;;;;;;1.80;1.30;;;17.60;99.90;;;;;;4916334;29;20035;-76
2021/08/29 11:50:56;;;;;;;1.85;1.00;;;17.70;99.90;;;;;;4917932;29;20067;-75
2021/08/29 11:53:22;;;;;;;1.15;0.90;;;17.80;99.90;;;;;;4918937;29;20111;-76
2021/08/29 11:55:54;;;;;;;1.65;1.23;;;18.00;99.90;;;;;;4917972;29;20491;-75
2021/08/29 11:58:21;;;;;;;1.65;1.50;;;18.20;99.90;;;;;;4918672;29;20077;-76
2021/08/29 12:00:48;;;;;;;1.83;1.40;;;18.40;99.90;;;;;;4917286;29;20051;-76
2021/08/29 12:03:15;;;;;;;1.50;1.40;;;18.50;99.90;;;;;;4917856;29;20028;-75
2021/08/29 12:06:05;;;;;;;1.35;1.25;;;18.70;99.90;;;;;;4917607;29;20039;-75
2021/08/29 12:08:38;;;;;;;3.80;1.80;;;18.70;99.90;;;;;;4917324;29;20164;-72
2021/08/29 12:11:04;;;;;;;1.42;1.30;;;18.60;99.90;;;;;;4917766;29;20477;-81
2021/08/29 12:13:30;;;;;;;2.53;1.60;;;18.50;99.90;;;;;;4917915;29;20020;-73
2021/08/29 12:16:01;;;;;;;3.17;1.90;;;18.50;99.90;;;;;;4916737;29;20028;-74
2021/08/29 12:18:28;;;;;;;3.60;2.03;;;18.50;99.90;;;;;;4916142;29;20050;-74
2021/08/29 12:20:55;;;;;;;4.00;2.60;;;18.40;99.90;;;;;;4916620;29;20497;-74
2021/08/29 12:23:24;;;;;;;6.63;2.28;;;18.40;99.90;;;;;;4917596;29;20485;-75
2021/08/29 12:25:58;;;;;;;3.70;2.70;;;18.50;99.90;;;;;;4932803;29;20126;-76
2021/08/29 12:28:24;;;;;;;3.75;2.78;;;18.80;99.90;;;;;;4918340;29;20095;-75
2021/08/29 12:30:55;;;;;;;4.65;3.05;;;19.00;99.90;;;;;;4916185;29;20036;-74
2021/08/29 12:33:21;;;;;;;5.15;2.65;;;19.20;99.90;;;;;;4917928;29;20032;-74
2021/08/29 12:35:47;;;;;;;4.35;3.03;;;19.30;99.90;;;;;;4916789;29;20115;-74
2021/08/29 12:38:31;;;;;;;4.65;2.95;;;19.20;99.90;;;;;;4916026;29;20115;-74
2021/08/29 12:40:58;;;;;;;5.78;3.50;;;19.20;99.90;;;;;;4916938;29;20028;-74
2021/08/29 12:43:27;;;;;;;7.07;3.20;;;19.20;99.90;;;;;;4917648;29;20032;-74
2021/08/29 12:45:53;;;;;;;5.70;3.70;;;19.10;99.90;;;;;;4915868;29;20493;-73